EHAK

A12-cpp Sea

A12-cpp Sea, The Netherlands
METAR EHAK 201455Z AUTO 16007KT 2200 DZ FEW002/// SCT009/// BKN010/// 04/03 Q1021 W///H///
Observed Flight Rules
Feb-20 @ 14:55 UTC (2 hours ago) Instrument Flight Rules
Wind Visibility Clouds Conditions
160° at 7 knots 2,205 meters
  • Few at 200' AGL
  • Scattered at 900' AGL
  • Broken at 1,000' AGL
  • Drizzle
Temperatures Readings
Current 4°C / 39°F
Dewpoint 3°C / 37°F
Humidity 93%
Altimeter 30.15" Hg
Pressure 1021 hPa
Elevation 50
METAR EHAK 201455Z AUTO 16007KT 2200 DZ FEW002/// SCT009/// BKN010/// 04/03 Q1021 W///H///
Observed Flight Rules
Feb-20 @ 14:55 UTC
(2 hours ago)
IFR
Wind Visibility
160° at 7 knots 2,205 meters
Clouds
  • Few at 200' AGL
  • Scattered at 900' AGL
  • Broken at 1,000' AGL
Conditions
  • Drizzle
Temperature Dewpoint
4°C / 39°F 3°C / 37°F
Humidity Altimeter Pressure
93% 30.15" Hg 1021 hPa